Voyager Of The Seas — C6SE5 — position and weather

sailwx.info

Track history (hours):
 
Tides and Currents Weather Stations Pressure Air Temp Water Temp Dewpoint Dewpoint Depression Visibility Wind Speed Wind Dir Waves Ship Positions

Voyager Of The Seas

Operator: Royal Caribbean Cruises Ltd

Last reported at 2017-Jun-17 10:30 UTC. Time now 2017-Jun-24 05:20 UTC.
Position N 01°14' E 104°04'.

Type: Passenger vessel. MMSI: 311317000.

Date/timePositionNaut miles runAvg speedWind from/ knotsBaromVisibWave heightAir tempDewpointWater temp
2017-Jun-17 10:30N 01°14' E 104°04'917.8
2017-Jun-17 10:00N 01°13' E 103°55'4 8.5
2017-Jun-17 09:30N 01°15' E 103°51'1 0.4
2017-Jun-17 07:21N 01°16' E 103°52'0 0.0
2017-Jun-17 06:57N 01°16' E 103°52'0 0.0
2017-Jun-17 06:15N 01°16' E 103°52'0 0.0
2017-Jun-17 04:06N 01°16' E 103°52'0 0.0
2017-Jun-17 03:36N 01°16' E 103°52'0 0.0
2017-Jun-17 03:24N 01°16' E 103°52'0 0.0
2017-Jun-17 02:48N 01°16' E 103°52'0 0.0
2017-Jun-17 02:30N 01°16' E 103°52'0 0.0
2017-Jun-17 01:30N 01°16' E 103°52'0 0.0
2017-Jun-17 00:42N 01°16' E 103°52'0 0.0
2017-Jun-17 00:21N 01°16' E 103°52'0 0.0
2017-Jun-16 23:57N 01°16' E 103°52'0 0.9
2017-Jun-16 23:30N 01°16' E 103°52'3 6.1
2017-Jun-16 23:00N 01°13' E 103°53'5 9.3
2017-Jun-16 22:30N 01°11' E 103°49'612.6
2017-Jun-16 22:00N 01°07' E 103°45'713.6
2017-Jun-16 21:30N 01°03' E 103°39'713.2
2017-Jun-16 21:00N 01°06' E 103°33'612.8
2017-Jun-16 20:30N 01°09' E 103°28'612.3
2017-Jun-16 20:00N 01°13' E 103°23'6213.6
2017-Jun-16 15:29N 01°46' E 102°31'712.9
2017-Jun-16 14:58N 01°49' E 102°25'713.5
2017-Jun-16 14:28N 01°52' E 102°19'  
2017-Jun-13 16:42N 05°36' E 100°09'2 9.6
2017-Jun-13 16:29N 05°36' E 100°11'611.5
2017-Jun-13 16:00N 05°33' E 100°16'815.1
2017-Jun-13 15:29N 05°27' E 100°21'2 0.4
2017-Jun-13 10:30N 05°25' E 100°21'0 0.0
2017-Jun-13 06:13N 05°25' E 100°21'1 3.6
2017-Jun-13 06:00N 05°26' E 100°21'24315.7
2017-Jun-12 14:35N 01°55' E 102°21'217.5
2017-Jun-12 14:29N 01°54' E 102°23'1817.3
2017-Jun-12 13:26N 01°47' E 102°39'5018.7
2017-Jun-12 10:45N 01°18' E 103°20'520.0
2017-Jun-12 10:30N 01°15' E 103°25'1019.5
2017-Jun-12 10:00N 01°12' E 103°34'1019.5
2017-Jun-12 09:30N 01°09' E 103°43'918.1
2017-Jun-12 09:00N 01°12' E 103°52'4 6.3
2017-Jun-12 08:24N 01°16' E 103°52'0 0.0
2017-Jun-12 00:48N 01°16' E 103°52'0 0.0
2017-Jun-12 00:30N 01°16' E 103°52'0 0.0
2017-Jun-12 00:00N 01°16' E 103°52'0 0.0
2017-Jun-11 23:24N 01°16' E 103°52'0 0.4
2017-Jun-11 23:00N 01°16' E 103°52'3 6.5
2017-Jun-11 22:30N 01°13' E 103°54'4 7.5
2017-Jun-11 22:01N 01°11' E 103°51'510.5
2017-Jun-11 21:31N 01°08' E 103°46'611.0
2017-Jun-11 21:00N 01°05' E 103°42'5 9.8
2017-Jun-11 20:30N 01°03' E 103°38'510.7
2017-Jun-11 20:00N 01°06' E 103°33'510.3
2017-Jun-11 19:31N 01°08' E 103°28'510.6
2017-Jun-11 19:01N 01°11' E 103°24'611.1
2017-Jun-11 18:31N 01°15' E 103°20'1211.5
2017-Jun-11 17:27N 01°23' E 103°10'4410.0
2017-Jun-11 13:02N 01°45' E 102°32'110.0
2017-Jun-11 12:58N 01°45' E 102°31'510.6
2017-Jun-11 12:30N 01°47' E 102°27'510.6
2017-Jun-11 11:59N 01°49' E 102°22'6 0.1
2017-Jun-09 16:16N 01°54' E 102°20'415.0
2017-Jun-09 15:59N 01°53' E 102°24'6514.1
2017-Jun-09 11:25N 01°19' E 103°19'716.0
2017-Jun-09 10:59N 01°15' E 103°24'816.1
2017-Jun-09 10:31N 01°13' E 103°32'815.9
2017-Jun-09 10:01N 01°11' E 103°39'714.0
2017-Jun-09 09:31N 01°09' E 103°46'714.3
2017-Jun-09 09:01N 01°14' E 103°52'2 4.7
2017-Jun-09 08:31N 01°16' E 103°52'0 0.2
2017-Jun-09 08:00N 01°16' E 103°52'0 0.0
2017-Jun-09 07:30N 01°16' E 103°52'0 0.0
2017-Jun-09 06:59N 01°16' E 103°52'0 0.0
2017-Jun-09 06:28N 01°16' E 103°52'0 0.0
2017-Jun-09 06:00N 01°16' E 103°52'0 0.0
2017-Jun-09 05:30N 01°16' E 103°52'0 0.0
2017-Jun-09 05:00N 01°16' E 103°52'0 0.0
2017-Jun-09 04:30N 01°16' E 103°52'0 0.0
2017-Jun-09 04:00N 01°16' E 103°52'0 0.0
2017-Jun-09 03:31N 01°16' E 103°52'0 0.0
2017-Jun-09 03:00N 01°16' E 103°52'0 0.0
2017-Jun-09 02:31N 01°16' E 103°52'0 0.0
2017-Jun-09 02:00N 01°16' E 103°52'0 0.0
2017-Jun-09 01:30N 01°16' E 103°52'0 0.0
2017-Jun-09 00:57N 01°16' E 103°52'0 0.0
2017-Jun-09 00:27N 01°16' E 103°52'0 0.0
2017-Jun-08 23:51N 01°16' E 103°52'0 0.0
2017-Jun-08 23:30N 01°16' E 103°52'0 0.1
2017-Jun-08 23:00N 01°16' E 103°52'3 5.9
2017-Jun-08 22:30N 01°13' E 103°53'5 9.2
2017-Jun-08 22:00N 01°11' E 103°49'612.1
2017-Jun-08 21:30N 01°07' E 103°45'612.9
2017-Jun-08 21:00N 01°03' E 103°39'713.1
2017-Jun-08 20:30N 01°06' E 103°33'713.0
2017-Jun-08 20:00N 01°09' E 103°27'713.2
2017-Jun-08 19:30N 01°13' E 103°22'713.4
2017-Jun-08 18:58N 01°18' E 103°17'4112.6
2017-Jun-08 15:44N 01°39' E 102°42'1212.7
2017-Jun-08 14:48N 01°45' E 102°31'412.7
2017-Jun-08 14:30N 01°46' E 102°28'1313.0
2017-Jun-08 13:30N 01°52' E 102°16'  
Track history (hours):
 
Tides and Currents Weather Stations Pressure Air Temp Water Temp Dewpoint Dewpoint Depression Visibility Wind Speed Wind Dir Waves Ship Positions

Voyager Of The Seas

Operator: Royal Caribbean Cruises Ltd

Last reported at 2017-Jun-17 10:30 UTC. Time now 2017-Jun-24 05:20 UTC.
Position N 01°14' E 104°04'.

Type: Passenger vessel. MMSI: 311317000.

Date/timePositionNaut miles runAvg speedWind from/ knotsBaromVisibWave heightAir tempDewpointWater temp
2017-Jun-17 10:30N 01°14' E 104°04'917.8
2017-Jun-17 10:00N 01°13' E 103°55'4 8.5
2017-Jun-17 09:30N 01°15' E 103°51'1 0.4
2017-Jun-17 07:21N 01°16' E 103°52'0 0.0
2017-Jun-17 06:57N 01°16' E 103°52'0 0.0
2017-Jun-17 06:15N 01°16' E 103°52'0 0.0
2017-Jun-17 04:06N 01°16' E 103°52'0 0.0
2017-Jun-17 03:36N 01°16' E 103°52'0 0.0
2017-Jun-17 03:24N 01°16' E 103°52'0 0.0
2017-Jun-17 02:48N 01°16' E 103°52'0 0.0
2017-Jun-17 02:30N 01°16' E 103°52'0 0.0
2017-Jun-17 01:30N 01°16' E 103°52'0 0.0
2017-Jun-17 00:42N 01°16' E 103°52'0 0.0
2017-Jun-17 00:21N 01°16' E 103°52'0 0.0
2017-Jun-16 23:57N 01°16' E 103°52'0 0.9
2017-Jun-16 23:30N 01°16' E 103°52'3 6.1
2017-Jun-16 23:00N 01°13' E 103°53'5 9.3
2017-Jun-16 22:30N 01°11' E 103°49'612.6
2017-Jun-16 22:00N 01°07' E 103°45'713.6
2017-Jun-16 21:30N 01°03' E 103°39'713.2
2017-Jun-16 21:00N 01°06' E 103°33'612.8
2017-Jun-16 20:30N 01°09' E 103°28'612.3
2017-Jun-16 20:00N 01°13' E 103°23'6213.6
2017-Jun-16 15:29N 01°46' E 102°31'712.9
2017-Jun-16 14:58N 01°49' E 102°25'713.5
2017-Jun-16 14:28N 01°52' E 102°19'  
2017-Jun-13 16:42N 05°36' E 100°09'2 9.6
2017-Jun-13 16:29N 05°36' E 100°11'611.5
2017-Jun-13 16:00N 05°33' E 100°16'815.1
2017-Jun-13 15:29N 05°27' E 100°21'2 0.4
2017-Jun-13 10:30N 05°25' E 100°21'0 0.0
2017-Jun-13 06:13N 05°25' E 100°21'1 3.6
2017-Jun-13 06:00N 05°26' E 100°21'24315.7
2017-Jun-12 14:35N 01°55' E 102°21'217.5
2017-Jun-12 14:29N 01°54' E 102°23'1817.3
2017-Jun-12 13:26N 01°47' E 102°39'5018.7
2017-Jun-12 10:45N 01°18' E 103°20'520.0
2017-Jun-12 10:30N 01°15' E 103°25'1019.5
2017-Jun-12 10:00N 01°12' E 103°34'1019.5
2017-Jun-12 09:30N 01°09' E 103°43'918.1
2017-Jun-12 09:00N 01°12' E 103°52'4 6.3
2017-Jun-12 08:24N 01°16' E 103°52'0 0.0
2017-Jun-12 00:48N 01°16' E 103°52'0 0.0
2017-Jun-12 00:30N 01°16' E 103°52'0 0.0
2017-Jun-12 00:00N 01°16' E 103°52'0 0.0
2017-Jun-11 23:24N 01°16' E 103°52'0 0.4
2017-Jun-11 23:00N 01°16' E 103°52'3 6.5
2017-Jun-11 22:30N 01°13' E 103°54'4 7.5
2017-Jun-11 22:01N 01°11' E 103°51'510.5
2017-Jun-11 21:31N 01°08' E 103°46'611.0
2017-Jun-11 21:00N 01°05' E 103°42'5 9.8
2017-Jun-11 20:30N 01°03' E 103°38'510.7
2017-Jun-11 20:00N 01°06' E 103°33'510.3
2017-Jun-11 19:31N 01°08' E 103°28'510.6
2017-Jun-11 19:01N 01°11' E 103°24'611.1
2017-Jun-11 18:31N 01°15' E 103°20'1211.5
2017-Jun-11 17:27N 01°23' E 103°10'4410.0
2017-Jun-11 13:02N 01°45' E 102°32'110.0
2017-Jun-11 12:58N 01°45' E 102°31'510.6
2017-Jun-11 12:30N 01°47' E 102°27'510.6
2017-Jun-11 11:59N 01°49' E 102°22'6 0.1
2017-Jun-09 16:16N 01°54' E 102°20'415.0
2017-Jun-09 15:59N 01°53' E 102°24'6514.1
2017-Jun-09 11:25N 01°19' E 103°19'716.0
2017-Jun-09 10:59N 01°15' E 103°24'816.1
2017-Jun-09 10:31N 01°13' E 103°32'815.9
2017-Jun-09 10:01N 01°11' E 103°39'714.0
2017-Jun-09 09:31N 01°09' E 103°46'714.3
2017-Jun-09 09:01N 01°14' E 103°52'2 4.7
2017-Jun-09 08:31N 01°16' E 103°52'0 0.2
2017-Jun-09 08:00N 01°16' E 103°52'0 0.0
2017-Jun-09 07:30N 01°16' E 103°52'0 0.0
2017-Jun-09 06:59N 01°16' E 103°52'0 0.0
2017-Jun-09 06:28N 01°16' E 103°52'0 0.0
2017-Jun-09 06:00N 01°16' E 103°52'0 0.0
2017-Jun-09 05:30N 01°16' E 103°52'0 0.0
2017-Jun-09 05:00N 01°16' E 103°52'0 0.0
2017-Jun-09 04:30N 01°16' E 103°52'0 0.0
2017-Jun-09 04:00N 01°16' E 103°52'0 0.0
2017-Jun-09 03:31N 01°16' E 103°52'0 0.0
2017-Jun-09 03:00N 01°16' E 103°52'0 0.0
2017-Jun-09 02:31N 01°16' E 103°52'0 0.0
2017-Jun-09 02:00N 01°16' E 103°52'0 0.0
2017-Jun-09 01:30N 01°16' E 103°52'0 0.0
2017-Jun-09 00:57N 01°16' E 103°52'0 0.0
2017-Jun-09 00:27N 01°16' E 103°52'0 0.0
2017-Jun-08 23:51N 01°16' E 103°52'0 0.0
2017-Jun-08 23:30N 01°16' E 103°52'0 0.1
2017-Jun-08 23:00N 01°16' E 103°52'3 5.9
2017-Jun-08 22:30N 01°13' E 103°53'5 9.2
2017-Jun-08 22:00N 01°11' E 103°49'612.1
2017-Jun-08 21:30N 01°07' E 103°45'612.9
2017-Jun-08 21:00N 01°03' E 103°39'713.1
2017-Jun-08 20:30N 01°06' E 103°33'713.0
2017-Jun-08 20:00N 01°09' E 103°27'713.2
2017-Jun-08 19:30N 01°13' E 103°22'713.4
2017-Jun-08 18:58N 01°18' E 103°17'4112.6
2017-Jun-08 15:44N 01°39' E 102°42'1212.7
2017-Jun-08 14:48N 01°45' E 102°31'412.7
2017-Jun-08 14:30N 01°46' E 102°28'1313.0
2017-Jun-08 13:30N 01°52' E 102°16'  

Dump ship's entire track history